Time;durP1;ratioP1;P1;durP2;ratioP2;P2;SDS_P1;SDS_P2;PMS_P1;PMS_P2;Temp;Humidity;BMP_temperature;BMP_pressure;BME280_temperature;BME280_humidity;BME280_pressure;Samples;Min_cycle;Max_cycle;Signal;HPM_P1;HPM_P2
2020/12/30 00:00:43;;;;;;;15.50;4.50;;;;;;;7.50;62.94;97791.48;119886;1151;104445;-78
2020/12/30 00:03:10;;;;;;;13.88;4.55;;;;;;;7.42;62.38;97792.08;119777;1151;104356;-79
2020/12/30 00:05:37;;;;;;;13.57;4.30;;;;;;;7.35;62.27;97788.23;119764;1151;104540;-77
2020/12/30 00:08:06;;;;;;;12.30;3.85;;;;;;;7.29;62.89;97786.94;119852;1151;105179;-73
2020/12/30 00:10:34;;;;;;;11.45;4.08;;;;;;;7.21;62.57;97798.14;119859;1151;104863;-76
2020/12/30 00:13:01;;;;;;;15.17;3.90;;;;;;;7.17;62.37;97795.84;119860;1151;104487;-76
2020/12/30 00:15:28;;;;;;;15.53;4.12;;;;;;;7.16;62.78;97789.72;119934;1151;104496;-76
2020/12/30 00:17:56;;;;;;;11.67;3.60;;;;;;;7.11;62.39;97790.10;119872;1151;104352;-76
2020/12/30 00:20:23;;;;;;;14.30;4.30;;;;;;;7.07;62.54;97803.66;119806;1151;104410;-75
2020/12/30 00:22:50;;;;;;;14.97;3.83;;;;;;;7.02;62.09;97805.83;119809;1151;104551;-76
2020/12/30 00:25:20;;;;;;;12.03;3.93;;;;;;;6.95;62.62;97801.02;119752;1151;104374;-75
2020/12/30 00:27:47;;;;;;;10.95;4.10;;;;;;;6.89;62.28;97800.66;119841;1151;104411;-76
2020/12/30 00:30:19;;;;;;;9.67;3.73;;;;;;;6.83;62.91;97816.03;120099;1151;104355;-76
2020/12/30 00:32:47;;;;;;;13.60;3.97;;;;;;;6.81;62.81;97825.88;119841;1151;104394;-77
2020/12/30 00:35:17;;;;;;;14.95;4.20;;;;;;;6.80;62.45;97826.84;119768;1148;104404;-76
2020/12/30 00:37:48;;;;;;;12.67;4.00;;;;;;;6.80;62.83;97828.66;119848;1151;104349;-78
2020/12/30 00:40:16;;;;;;;13.83;4.17;;;;;;;6.82;62.94;97837.31;119851;1151;104486;-76
2020/12/30 00:42:43;;;;;;;12.68;3.80;;;;;;;6.84;63.28;97849.44;119835;1151;104380;-75
2020/12/30 00:45:11;;;;;;;12.47;3.77;;;;;;;6.84;62.70;97853.89;119919;1151;104442;-77
2020/12/30 00:47:39;;;;;;;12.20;3.90;;;;;;;6.85;62.58;97842.36;120004;1151;104467;-76
2020/12/30 00:50:07;;;;;;;10.07;3.53;;;;;;;6.87;62.95;97852.80;120007;1151;104468;-75
2020/12/30 00:52:35;;;;;;;11.83;3.70;;;;;;;6.88;63.31;97862.41;119966;1151;104442;-76
2020/12/30 00:55:06;;;;;;;9.90;3.15;;;;;;;6.90;63.00;97864.00;120486;1151;104467;-77
2020/12/30 00:57:33;;;;;;;12.73;3.70;;;;;;;6.92;63.30;97870.02;119853;1151;104435;-76
2020/12/30 01:00:00;;;;;;;14.80;3.80;;;;;;;6.95;62.76;97890.89;121129;1149;104348;-75
2020/12/30 01:02:27;;;;;;;11.27;3.27;;;;;;;6.97;63.36;97891.63;119872;1151;104559;-75
2020/12/30 01:04:53;;;;;;;14.60;3.50;;;;;;;6.99;63.47;97896.81;119846;1151;104448;-77
2020/12/30 01:07:20;;;;;;;12.23;3.23;;;;;;;7.02;62.78;97904.50;119785;1151;104371;-77
2020/12/30 01:09:48;;;;;;;13.67;4.10;;;;;;;7.03;62.93;97900.05;120075;1151;104459;-76
2020/12/30 01:12:16;;;;;;;13.53;3.60;;;;;;;7.05;62.74;97904.27;119823;1151;104454;-76
2020/12/30 01:14:43;;;;;;;9.90;3.40;;;;;;;7.06;62.99;97900.67;120484;1151;104511;-76
2020/12/30 01:17:10;;;;;;;11.57;3.67;;;;;;;7.08;62.84;97898.75;119864;1151;104460;-76
2020/12/30 01:19:38;;;;;;;13.07;4.00;;;;;;;7.14;63.21;97894.78;119854;1151;104455;-77
2020/12/30 01:22:05;;;;;;;12.50;3.70;;;;;;;7.18;63.00;97885.65;119962;1151;104377;-76
2020/12/30 01:24:32;;;;;;;14.70;4.17;;;;;;;7.17;62.86;97886.61;119769;1153;104461;-76
2020/12/30 01:26:59;;;;;;;11.10;3.40;;;;;;;7.20;63.59;97888.16;120652;1150;104375;-75
2020/12/30 01:29:26;;;;;;;11.50;3.83;;;;;;;7.23;63.14;97893.22;119810;1151;104388;-76
2020/12/30 01:31:53;;;;;;;11.77;3.73;;;;;;;7.20;63.53;97888.16;120072;1151;104492;-76
2020/12/30 01:34:20;;;;;;;12.87;3.67;;;;;;;7.18;63.37;97887.44;119987;1151;104353;-75
2020/12/30 01:36:52;;;;;;;12.50;4.30;;;;;;;7.15;63.20;97870.84;119863;1151;104377;-77
2020/12/30 01:39:21;;;;;;;10.80;3.57;;;;;;;7.18;62.97;97876.86;119754;1151;104458;-75
2020/12/30 01:41:49;;;;;;;11.50;3.47;;;;;;;7.17;63.02;97872.53;120105;1152;104425;-75
2020/12/30 01:44:16;;;;;;;10.93;3.50;;;;;;;7.12;63.65;97854.39;119889;1151;104454;-74
2020/12/30 01:46:46;;;;;;;10.30;3.40;;;;;;;7.15;63.58;97860.27;119905;1151;104349;-76
2020/12/30 01:49:19;;;;;;;7.10;2.43;;;;;;;7.18;63.00;97864.49;119819;1151;104615;-76
2020/12/30 01:51:47;;;;;;;8.20;3.10;;;;;;;7.19;63.36;97846.80;119815;1154;104512;-75
2020/12/30 01:54:15;;;;;;;8.57;3.30;;;;;;;7.29;63.51;97853.06;119820;1151;104346;-76
2020/12/30 01:56:44;;;;;;;11.30;3.30;;;;;;;7.38;63.63;97844.41;119845;1151;104353;-75
2020/12/30 01:59:15;;;;;;;8.50;3.25;;;;;;;7.40;63.55;97839.84;119952;1151;104455;-73
2020/12/30 02:01:53;;;;;;;9.80;3.17;;;;;;;7.45;63.61;97839.46;119816;1151;104460;-75
2020/12/30 02:04:25;;;;;;;8.73;3.70;;;;;;;7.52;63.98;97837.19;119799;1151;104458;-74
2020/12/30 02:06:55;;;;;;;11.33;4.47;;;;;;;7.53;63.90;97829.11;119767;1151;104429;-74
2020/12/30 02:09:22;;;;;;;9.53;3.50;;;;;;;7.53;63.87;97831.76;119822;1152;104397;-76
2020/12/30 02:11:51;;;;;;;8.17;3.10;;;;;;;7.52;63.67;97829.25;119894;1151;104410;-75
2020/12/30 02:14:21;;;;;;;12.13;3.30;;;;;;;7.39;63.69;97824.07;119859;1153;104404;-77
2020/12/30 02:16:56;;;;;;;10.27;3.33;;;;;;;7.28;63.61;97824.93;119814;1154;104432;-75
2020/12/30 02:19:24;;;;;;;9.90;3.50;;;;;;;7.15;63.46;97817.95;119913;1152;104430;-76
2020/12/30 02:21:58;;;;;;;10.40;3.47;;;;;;;7.04;63.63;97815.34;119893;1153;104358;-76
2020/12/30 02:24:27;;;;;;;9.37;3.20;;;;;;;6.96;62.96;97815.09;119847;1153;104394;-76
2020/12/30 02:26:56;;;;;;;7.40;3.17;;;;;;;6.90;62.97;97820.84;119952;1153;104453;-77
2020/12/30 02:29:30;;;;;;;10.90;3.60;;;;;;;6.86;63.05;97817.61;119861;1153;104475;-74
2020/12/30 02:31:58;;;;;;;6.97;2.80;;;;;;;6.84;63.13;97801.03;119946;1154;104521;-76
2020/12/30 02:34:27;;;;;;;7.73;2.80;;;;;;;6.85;63.87;97810.64;120062;1152;104850;-77
2020/12/30 02:36:57;;;;;;;7.00;2.63;;;;;;;6.87;63.21;97814.02;119948;1152;104441;-75
2020/12/30 02:39:24;;;;;;;7.73;2.90;;;;;;;6.89;63.79;97809.45;119850;1153;104333;-75
2020/12/30 02:41:51;;;;;;;6.87;2.90;;;;;;;6.91;63.63;97804.02;120381;1151;104892;-74
2020/12/30 02:44:18;;;;;;;8.23;2.90;;;;;;;6.97;63.61;97806.20;120161;1151;104430;-74
2020/12/30 02:46:46;;;;;;;10.80;3.97;;;;;;;7.02;63.54;97811.11;119830;1151;104442;-76
2020/12/30 02:49:12;;;;;;;6.63;2.90;;;;;;;7.05;63.97;97798.52;119916;1151;104455;-75
2020/12/30 02:51:46;;;;;;;9.70;3.23;;;;;;;7.10;63.35;97806.92;119908;1153;104499;-74
2020/12/30 02:54:13;;;;;;;7.67;3.20;;;;;;;7.11;63.99;97802.46;119812;1153;104428;-76
2020/12/30 02:56:39;;;;;;;8.37;2.93;;;;;;;7.14;63.36;97812.80;120728;1151;104407;-76
2020/12/30 02:59:06;;;;;;;10.23;3.17;;;;;;;7.15;64.01;97807.38;119871;1151;104493;-76
2020/12/30 03:01:35;;;;;;;12.23;4.17;;;;;;;7.17;63.95;97809.06;120054;1151;104468;-75
2020/12/30 03:04:02;;;;;;;6.30;2.90;;;;;;;7.16;64.03;97816.17;119981;1151;104584;-76
2020/12/30 03:06:29;;;;;;;6.67;2.80;;;;;;;7.15;63.63;97811.84;119821;1153;104500;-77
2020/12/30 03:08:56;;;;;;;8.37;3.00;;;;;;;7.11;63.89;97821.83;119913;1153;104473;-78
2020/12/30 03:11:25;;;;;;;7.08;2.80;;;;;;;7.10;63.98;97822.80;119852;1153;104854;-76
2020/12/30 03:13:53;;;;;;;7.00;3.10;;;;;;;7.11;63.38;97824.47;120500;1151;104361;-77
2020/12/30 03:16:22;;;;;;;8.13;3.10;;;;;;;7.12;63.32;97830.59;119926;1153;104353;-78
2020/12/30 03:18:50;;;;;;;7.80;3.17;;;;;;;7.11;63.96;97824.47;119881;1151;104745;-76
2020/12/30 03:21:18;;;;;;;8.03;2.90;;;;;;;7.05;63.23;97813.52;120024;1153;104493;-75
2020/12/30 03:23:45;;;;;;;6.45;2.52;;;;;;;7.03;63.72;97824.23;119816;1153;104465;-76
2020/12/30 03:26:15;;;;;;;9.53;3.27;;;;;;;6.98;63.56;97819.28;119836;1152;104430;-75
2020/12/30 03:28:42;;;;;;;11.23;2.93;;;;;;;6.95;63.23;97816.88;119821;1153;104498;-75
2020/12/30 03:31:09;;;;;;;12.07;3.80;;;;;;;6.95;63.53;97819.52;119849;1151;104375;-73
2020/12/30 03:33:36;;;;;;;11.22;2.83;;;;;;;6.97;63.44;97811.48;119946;1151;104393;-74
2020/12/30 03:36:04;;;;;;;10.77;3.47;;;;;;;6.97;63.88;97808.84;120360;1151;104371;-75
2020/12/30 03:38:31;;;;;;;9.10;2.57;;;;;;;6.97;63.23;97811.48;119953;1151;104354;-75
2020/12/30 03:40:57;;;;;;;11.00;2.80;;;;;;;6.97;64.01;97809.66;119859;1151;104365;-75
2020/12/30 03:43:24;;;;;;;9.95;2.80;;;;;;;6.97;63.89;97808.84;119849;1151;104476;-74
2020/12/30 03:45:51;;;;;;;5.93;2.40;;;;;;;6.94;63.21;97811.72;119965;1151;104380;-74
2020/12/30 03:48:18;;;;;;;10.17;2.87;;;;;;;6.95;63.32;97811.59;119983;1154;104362;-75
2020/12/30 03:50:45;;;;;;;9.43;2.80;;;;;;;6.94;63.39;97814.36;120533;1151;104397;-76
2020/12/30 03:53:12;;;;;;;9.17;2.90;;;;;;;6.93;63.79;97821.44;119838;1152;104470;-76
2020/12/30 03:55:39;;;;;;;8.73;3.20;;;;;;;6.96;63.85;97807.98;119876;1151;104872;-77
2020/12/30 03:58:06;;;;;;;8.43;2.70;;;;;;;7.00;63.96;97825.30;119845;1153;104459;-77
2020/12/30 04:00:33;;;;;;;8.87;3.23;;;;;;;6.97;63.26;97817.59;119983;1151;104401;-78
2020/12/30 04:02:59;;;;;;;5.70;2.73;;;;;;;6.95;63.90;97822.16;120009;1153;104471;-77
2020/12/30 04:05:27;;;;;;;10.35;3.35;;;;;;;6.90;63.41;97819.06;119900;1151;104455;-76
2020/12/30 04:07:54;;;;;;;8.97;3.17;;;;;;;6.86;63.59;97820.26;119987;1151;104468;-74
2020/12/30 04:10:22;;;;;;;9.40;3.20;;;;;;;6.81;63.20;97815.30;119990;1153;104852;-78
2020/12/30 04:12:49;;;;;;;10.05;3.50;;;;;;;6.76;63.86;97809.53;119805;1151;104446;-77
2020/12/30 04:15:17;;;;;;;7.17;3.40;;;;;;;6.69;63.79;97805.70;119859;1153;104452;-75
2020/12/30 04:17:44;;;;;;;7.53;3.30;;;;;;;6.61;63.49;97806.27;119981;1151;104425;-76
2020/12/30 04:20:12;;;;;;;10.57;3.50;;;;;;;6.53;63.68;97804.23;119849;1153;104457;-75
2020/12/30 04:22:39;;;;;;;8.93;3.37;;;;;;;6.47;63.20;97804.69;119931;1153;104535;-75
2020/12/30 04:25:08;;;;;;;9.63;3.50;;;;;;;6.43;63.87;97818.27;120049;1151;104487;-75
2020/12/30 04:27:34;;;;;;;7.37;3.00;;;;;;;6.39;63.27;97814.99;119895;1152;104818;-77
2020/12/30 04:30:03;;;;;;;7.73;3.30;;;;;;;6.38;63.48;97810.66;119858;1153;104439;-74
2020/12/30 04:32:30;;;;;;;10.95;2.95;;;;;;;6.34;63.52;97812.71;120023;1151;104451;-77
2020/12/30 04:34:57;;;;;;;7.57;2.97;;;;;;;6.34;63.98;97804.79;120985;1152;104377;-78
2020/12/30 04:37:24;;;;;;;7.93;2.70;;;;;;;6.33;63.38;97799.61;119881;1153;104535;-78
2020/12/30 04:39:51;;;;;;;7.87;2.70;;;;;;;6.32;63.87;97793.50;119892;1153;104531;-77
2020/12/30 04:42:49;;;;;;;8.03;2.47;;;;;;;6.32;63.27;97806.70;120499;1153;104493;-76
2020/12/30 04:45:18;;;;;;;7.00;2.80;;;;;;;6.31;63.99;97789.17;119872;1151;104892;-77
2020/12/30 04:47:51;;;;;;;7.77;2.77;;;;;;;6.32;63.87;97790.86;120799;1152;102172;-75
2020/12/30 04:50:18;;;;;;;10.10;2.93;;;;;;;6.33;64.06;97796.97;119967;1152;104468;-73
2020/12/30 04:52:45;;;;;;;7.55;3.10;;;;;;;6.33;63.52;97795.18;119878;1152;104471;-75
2020/12/30 04:55:16;;;;;;;6.97;2.90;;;;;;;6.32;63.66;97787.36;119832;1152;104352;-76
2020/12/30 04:58:05;;;;;;;6.43;2.63;;;;;;;6.30;63.69;97784.84;119919;1152;104459;-75
2020/12/30 05:00:38;;;;;;;6.60;2.13;;;;;;;6.27;63.55;97784.25;119869;1151;104449;-76
2020/12/30 05:03:09;;;;;;;8.10;3.00;;;;;;;6.24;63.89;97780.88;119877;1151;104502;-78
2020/12/30 05:05:38;;;;;;;6.00;2.40;;;;;;;6.22;63.39;97784.58;120276;1152;104361;-77
2020/12/30 05:08:11;;;;;;;5.93;2.80;;;;;;;6.20;63.94;97786.49;119949;1151;104429;-77
2020/12/30 05:10:45;;;;;;;7.70;2.70;;;;;;;6.18;63.78;97783.98;119857;1151;104356;-77
2020/12/30 05:13:14;;;;;;;6.67;2.83;;;;;;;6.17;64.09;97784.08;119908;1151;104481;-77
2020/12/30 05:15:42;;;;;;;6.50;3.03;;;;;;;6.16;63.83;97791.17;119831;1153;104574;-77
2020/12/30 05:18:09;;;;;;;8.98;2.90;;;;;;;6.17;63.79;97787.58;120665;1151;104427;-78
2020/12/30 05:20:38;;;;;;;6.43;2.80;;;;;;;6.19;63.60;97792.73;119890;1153;104381;-77
2020/12/30 05:23:06;;;;;;;9.53;2.73;;;;;;;6.19;64.00;97784.81;119889;1151;104429;-78
2020/12/30 05:25:44;;;;;;;5.10;2.65;;;;;;;6.19;63.82;97779.53;119861;1153;104426;-76
2020/12/30 05:28:13;;;;;;;7.03;2.53;;;;;;;6.19;63.81;97787.45;120169;1151;104567;-78
2020/12/30 05:30:42;;;;;;;6.97;2.80;;;;;;;6.18;63.47;97791.91;120736;1153;104431;-78
2020/12/30 05:33:11;;;;;;;7.63;2.97;;;;;;;6.19;63.78;97784.81;119879;1153;104514;-76
2020/12/30 05:35:38;;;;;;;6.53;2.70;;;;;;;6.18;63.90;97791.05;120072;1153;104378;-76
2020/12/30 05:38:05;;;;;;;12.33;3.80;;;;;;;6.18;64.28;97789.27;120091;1151;104457;-76
2020/12/30 05:40:34;;;;;;;9.57;3.30;;;;;;;6.17;64.56;97784.94;120081;1153;104898;-77
2020/12/30 05:43:16;;;;;;;8.80;3.30;;;;;;;6.19;64.05;97779.53;119872;1151;104364;-76
2020/12/30 05:45:49;;;;;;;10.93;3.07;;;;;;;6.18;64.32;97780.48;119982;1152;104521;-74
2020/12/30 05:48:18;;;;;;;11.53;3.60;;;;;;;6.19;63.95;97783.02;120098;1152;104383;-75
2020/12/30 05:50:53;;;;;;;9.87;3.30;;;;;;;6.20;64.00;97787.35;120718;1153;104348;-77
2020/12/30 05:53:21;;;;;;;11.47;3.73;;;;;;;6.22;64.13;97781.94;120449;1151;104435;-77
2020/12/30 05:56:07;;;;;;;10.70;3.33;;;;;;;6.24;64.11;97790.59;119895;1152;104532;-78
2020/12/30 05:58:40;;;;;;;9.58;3.65;;;;;;;6.24;63.98;97783.52;119928;1151;104374;-79
2020/12/30 06:01:24;;;;;;;13.73;4.00;;;;;;;6.24;63.91;97799.37;119879;1153;104354;-76
2020/12/30 06:03:51;;;;;;;15.03;4.75;;;;;;;6.22;63.73;97790.72;119874;1151;104452;-77
2020/12/30 06:06:21;;;;;;;14.90;4.90;;;;;;;6.22;64.33;97803.92;119871;1153;104378;-78
2020/12/30 06:08:49;;;;;;;12.70;4.87;;;;;;;6.22;64.41;97805.70;120469;1153;104855;-79
2020/12/30 06:11:31;;;;;;;13.70;4.85;;;;;;;6.22;63.94;97810.98;121427;1151;104490;-77
2020/12/30 06:14:08;;;;;;;14.03;4.57;;;;;;;6.20;63.75;97813.75;119996;1152;104917;-77
2020/12/30 06:16:43;;;;;;;13.07;4.00;;;;;;;6.19;64.01;97805.94;119946;1153;104407;-75
2020/12/30 06:19:12;;;;;;;13.35;3.95;;;;;;;6.15;64.21;97809.75;119877;1152;104368;-76
2020/12/30 06:21:46;;;;;;;10.97;3.70;;;;;;;6.15;64.34;97812.39;120534;1153;104459;-74
2020/12/30 06:24:15;;;;;;;10.70;3.90;;;;;;;6.14;63.91;97816.85;119890;1151;104423;-77
2020/12/30 06:26:44;;;;;;;13.47;4.03;;;;;;;6.16;64.21;97811.44;119903;1153;104472;-76
2020/12/30 06:29:13;;;;;;;16.30;4.70;;;;;;;6.18;63.88;97814.81;119945;1153;104378;-76
2020/12/30 06:31:49;;;;;;;21.83;5.67;;;;;;;6.19;63.88;97817.35;119755;1154;104516;-76
2020/12/30 06:34:17;;;;;;;17.90;5.40;;;;;;;6.20;64.31;97813.75;119827;1153;104491;-75
2020/12/30 06:36:46;;;;;;;11.37;5.07;;;;;;;6.22;64.28;97817.12;119895;1153;104370;-75
2020/12/30 06:39:23;;;;;;;12.37;4.30;;;;;;;6.27;64.30;97813.30;119719;1151;104465;-76
2020/12/30 06:42:00;;;;;;;14.00;4.80;;;;;;;6.30;64.75;97808.61;119777;1151;104406;-76
2020/12/30 06:44:41;;;;;;;10.37;4.27;;;;;;;6.36;64.77;97813.44;119751;1152;104535;-76
2020/12/30 06:47:10;;;;;;;12.17;3.83;;;;;;;6.40;64.06;97809.61;121779;1152;102733;-74
2020/12/30 06:49:38;;;;;;;12.73;4.63;;;;;;;6.45;64.73;97808.42;121401;1151;104434;-75
2020/12/30 06:52:26;;;;;;;16.40;4.97;;;;;;;6.50;64.84;97807.10;120032;1154;104451;-77
2020/12/30 06:54:53;;;;;;;14.10;4.67;;;;;;;6.55;64.36;97804.09;120069;1151;104380;-76
2020/12/30 06:57:41;;;;;;;12.23;4.60;;;;;;;6.59;64.25;97808.19;120061;1151;104448;-76
2020/12/30 07:00:27;;;;;;;14.30;4.40;;;;;;;6.63;64.56;97804.36;120045;1153;104374;-73
2020/12/30 07:03:12;;;;;;;13.97;4.70;;;;;;;6.66;64.85;97808.58;120084;1153;104420;-72
2020/12/30 07:05:40;;;;;;;14.60;5.10;;;;;;;6.69;64.56;97813.63;120045;1153;104351;-77
2020/12/30 07:08:09;;;;;;;15.17;5.47;;;;;;;6.70;64.45;97815.31;120131;1151;104373;-76
2020/12/30 07:10:45;;;;;;;15.93;5.20;;;;;;;6.70;64.25;97812.67;120051;1151;104525;-76
2020/12/30 07:13:27;;;;;;;19.50;5.53;;;;;;;6.70;64.35;97816.14;120011;1151;104448;-76
2020/12/30 07:16:13;;;;;;;20.70;6.60;;;;;;;6.70;64.82;97820.60;120030;1151;104392;-76
2020/12/30 07:18:50;;;;;;;20.07;6.77;;;;;;;6.69;64.90;97825.03;120046;1151;104393;-77
2020/12/30 07:21:20;;;;;;;20.05;7.40;;;;;;;6.69;64.58;97834.77;120077;1151;104393;-75
2020/12/30 07:23:48;;;;;;;22.20;7.40;;;;;;;6.68;64.31;97831.27;120086;1151;104511;-77
2020/12/30 07:26:20;;;;;;;20.77;7.67;;;;;;;6.65;64.96;97833.33;120053;1151;104377;-77
2020/12/30 07:28:48;;;;;;;20.47;8.07;;;;;;;6.62;64.62;97839.66;119944;1151;104457;-76
2020/12/30 07:31:19;;;;;;;23.90;8.55;;;;;;;6.59;65.14;97836.42;120220;1151;104350;-77
2020/12/30 07:33:46;;;;;;;25.00;8.17;;;;;;;6.58;65.23;97843.50;120060;1151;104444;-77
2020/12/30 07:36:13;;;;;;;21.05;8.13;;;;;;;6.57;64.84;97844.45;120003;1151;104479;-78
2020/12/30 07:38:40;;;;;;;19.83;7.07;;;;;;;6.53;65.26;97841.22;120041;1151;104343;-76
2020/12/30 07:41:10;;;;;;;21.55;7.55;;;;;;;6.55;65.35;97841.09;120046;1151;104441;-75
2020/12/30 07:43:52;;;;;;;18.67;6.43;;;;;;;6.53;65.25;97843.86;120060;1151;104446;-75
2020/12/30 07:46:22;;;;;;;21.95;7.40;;;;;;;6.50;64.75;97840.62;120084;1151;104377;-74
2020/12/30 07:48:49;;;;;;;20.00;6.80;;;;;;;6.48;65.13;97853.92;120071;1151;104408;-73
2020/12/30 07:51:20;;;;;;;20.47;7.30;;;;;;;6.47;65.36;97856.70;120043;1151;104354;-74
2020/12/30 07:53:53;;;;;;;21.00;7.80;;;;;;;6.46;65.21;97857.66;120046;1151;104483;-74
2020/12/30 07:56:24;;;;;;;18.07;7.12;;;;;;;6.44;65.74;97852.47;120056;1151;104377;-75
2020/12/30 07:58:51;;;;;;;18.43;7.17;;;;;;;6.46;65.77;97855.84;120089;1151;104387;-73
2020/12/30 08:01:20;;;;;;;17.50;6.50;;;;;;;6.49;65.47;97854.78;120096;1151;104602;-75
2020/12/30 08:03:46;;;;;;;18.73;6.43;;;;;;;6.48;65.67;97856.57;120031;1151;104383;-75
2020/12/30 08:06:16;;;;;;;18.17;7.03;;;;;;;6.49;65.65;97852.97;120076;1151;104380;-76
2020/12/30 08:08:44;;;;;;;19.73;7.77;;;;;;;6.49;65.67;97852.97;120071;1151;104380;-74
2020/12/30 08:11:20;;;;;;;16.50;6.57;;;;;;;6.49;65.85;97854.78;120076;1151;104355;-74
2020/12/30 08:13:49;;;;;;;21.73;7.33;;;;;;;6.48;66.01;97861.85;120104;1151;104383;-73
2020/12/30 08:16:16;;;;;;;18.17;7.45;;;;;;;6.45;65.77;97856.80;120094;1151;104529;-75
2020/12/30 08:18:52;;;;;;;20.10;7.40;;;;;;;6.47;66.24;97865.45;120065;1151;104385;-75
2020/12/30 08:21:23;;;;;;;18.23;7.07;;;;;;;6.48;66.22;97866.31;120040;1151;104505;-76
2020/12/30 08:24:09;;;;;;;20.67;8.47;;;;;;;6.48;66.30;97861.85;120085;1151;104460;-76
2020/12/30 08:26:37;;;;;;;21.73;8.27;;;;;;;6.48;66.19;97866.31;120055;1151;104430;-75
2020/12/30 08:29:05;;;;;;;25.43;8.40;;;;;;;6.50;65.81;97864.39;120003;1151;104377;-76
2020/12/30 08:31:53;;;;;;;21.30;8.77;;;;;;;6.53;65.88;97869.42;120055;1151;104529;-76
2020/12/30 08:34:27;;;;;;;21.90;8.17;;;;;;;6.54;66.59;97871.96;120054;1151;104434;-76
2020/12/30 08:37:07;;;;;;;19.80;7.17;;;;;;;6.57;66.50;97876.16;120071;1151;104450;-76
2020/12/30 08:39:44;;;;;;;18.37;6.50;;;;;;;6.57;66.64;97870.05;120037;1151;104612;-74
2020/12/30 08:42:35;;;;;;;20.10;6.80;;;;;;;6.52;66.46;97860.66;120028;1151;104471;-73
2020/12/30 08:45:06;;;;;;;20.97;6.93;;;;;;;6.50;66.72;97856.47;120045;1151;104452;-74
2020/12/30 08:47:39;;;;;;;21.57;7.43;;;;;;;6.49;66.65;97855.61;120056;1151;104447;-76
2020/12/30 08:50:09;;;;;;;20.03;7.03;;;;;;;6.49;66.08;97857.42;120081;1151;104455;-73
2020/12/30 08:52:42;;;;;;;20.07;6.80;;;;;;;6.50;66.84;97852.02;120114;1151;104525;-74
2020/12/30 08:55:11;;;;;;;17.77;6.77;;;;;;;6.51;66.64;97852.88;120023;1151;104911;-76
2020/12/30 08:57:49;;;;;;;18.63;6.23;;;;;;;6.51;66.69;97850.23;120018;1151;104375;-71
2020/12/30 09:00:22;;;;;;;17.13;6.57;;;;;;;6.52;66.52;97849.27;120004;1151;104455;-75
2020/12/30 09:02:52;;;;;;;16.60;6.13;;;;;;;6.50;66.44;97845.91;120097;1151;104468;-71
2020/12/30 09:05:30;;;;;;;18.50;6.23;;;;;;;6.50;66.89;97845.91;120060;1151;104506;-75
2020/12/30 09:08:14;;;;;;;19.10;6.50;;;;;;;6.48;67.19;97846.00;120104;1151;104365;-75
2020/12/30 09:10:43;;;;;;;22.20;5.77;;;;;;;6.49;66.82;97834.48;120021;1151;104421;-73
2020/12/30 09:13:19;;;;;;;23.00;7.20;;;;;;;6.50;67.34;97833.52;119993;1151;104452;-73
2020/12/30 09:15:54;;;;;;;20.67;6.67;;;;;;;6.52;67.17;97836.06;120093;1151;104388;-72
2020/12/30 09:18:28;;;;;;;24.27;8.03;;;;;;;6.57;66.90;97825.13;120077;1151;104349;-73
2020/12/30 09:20:55;;;;;;;22.70;8.20;;;;;;;6.63;67.56;97822.03;120007;1151;105175;-73
2020/12/30 09:23:27;;;;;;;20.72;6.87;;;;;;;6.70;67.25;97828.53;120064;1151;104455;-74
2020/12/30 09:25:55;;;;;;;26.93;10.80;;;;;;;6.73;67.52;97822.16;119897;1151;104367;-72
2020/12/30 09:28:26;;;;;;;28.27;11.80;;;;;;;6.77;67.60;97816.50;119937;1151;104380;-72
2020/12/30 09:30:56;;;;;;;30.43;14.10;;;;;;;6.80;67.02;97813.63;120088;1151;104381;-74
2020/12/30 09:33:26;;;;;;;27.30;11.12;;;;;;;6.84;67.46;97808.96;119990;1151;104434;-72
2020/12/30 09:35:53;;;;;;;22.25;8.75;;;;;;;6.88;67.14;97813.05;120094;1151;104448;-73
2020/12/30 09:38:23;;;;;;;27.37;10.97;;;;;;;6.88;67.54;97807.77;120057;1151;104379;-74
2020/12/30 09:40:54;;;;;;;21.73;9.80;;;;;;;6.89;67.48;97806.80;120167;1151;104490;-74
2020/12/30 09:43:25;;;;;;;21.10;8.30;;;;;;;6.93;67.61;97802.94;120142;1151;104505;-74
2020/12/30 09:46:01;;;;;;;21.35;9.00;;;;;;;6.96;67.30;97807.98;119976;1151;104494;-75
2020/12/30 09:48:30;;;;;;;20.60;8.47;;;;;;;6.98;67.33;97798.13;120118;1151;104847;-75
2020/12/30 09:50:56;;;;;;;19.67;9.30;;;;;;;7.00;67.33;97806.78;120051;1151;104381;-73
2020/12/30 09:53:23;;;;;;;19.70;9.30;;;;;;;6.99;67.96;97789.23;120120;1151;104376;-74
2020/12/30 09:55:51;;;;;;;21.33;9.17;;;;;;;6.98;67.33;97790.20;120074;1151;104560;-74
2020/12/30 09:58:19;;;;;;;18.83;8.93;;;;;;;6.96;67.13;97789.48;120016;1151;104464;-73
2020/12/30 10:00:46;;;;;;;21.50;8.90;;;;;;;6.89;67.93;97790.09;120041;1149;104447;-74
2020/12/30 10:03:13;;;;;;;20.73;8.40;;;;;;;6.84;67.90;97791.28;120078;1151;104856;-71
2020/12/30 10:05:41;;;;;;;21.47;8.73;;;;;;;6.82;67.90;97782.63;120082;1151;104373;-79
2020/12/30 10:08:08;;;;;;;21.80;8.80;;;;;;;6.85;67.50;97784.21;120085;1151;104984;-74
2020/12/30 10:10:35;;;;;;;21.30;9.70;;;;;;;6.90;68.15;97783.84;120082;1149;104485;-72
2020/12/30 10:13:02;;;;;;;21.37;9.30;;;;;;;6.92;68.12;97780.13;120027;1151;104400;-73
2020/12/30 10:15:32;;;;;;;25.60;9.67;;;;;;;6.96;67.72;97778.90;120055;1151;104374;-75
2020/12/30 10:18:01;;;;;;;24.37;10.00;;;;;;;7.00;67.79;97769.77;120065;1151;104406;-72
2020/12/30 10:20:29;;;;;;;23.83;10.33;;;;;;;7.05;68.41;97772.07;120042;1151;104487;-74
2020/12/30 10:22:56;;;;;;;25.03;10.93;;;;;;;7.07;68.31;97766.64;120004;1153;104361;-74
2020/12/30 10:25:23;;;;;;;22.47;10.00;;;;;;;7.09;68.32;97755.00;120016;1151;104374;-74
2020/12/30 10:27:50;;;;;;;23.73;10.90;;;;;;;7.16;68.50;97763.28;120009;1153;104441;-71
2020/12/30 10:30:17;;;;;;;24.23;10.43;;;;;;;7.20;68.60;97755.93;120040;1153;104383;-72
2020/12/30 10:32:44;;;;;;;21.55;9.60;;;;;;;7.22;68.64;97748.71;120108;1151;104517;-71
2020/12/30 10:35:11;;;;;;;22.50;10.27;;;;;;;7.26;68.79;97745.72;120044;1151;104479;-72
2020/12/30 10:37:38;;;;;;;23.60;10.20;;;;;;;7.28;68.71;97750.87;120027;1151;105006;-72
2020/12/30 10:40:06;;;;;;;24.20;10.75;;;;;;;7.30;68.43;97738.36;120073;1151;104389;-72
2020/12/30 10:42:34;;;;;;;24.73;10.83;;;;;;;7.34;68.25;97725.72;120056;1154;104510;-71
2020/12/30 10:45:01;;;;;;;27.03;12.07;;;;;;;7.37;68.31;97726.33;120024;1151;104379;-71
2020/12/30 10:47:28;;;;;;;27.03;12.90;;;;;;;7.38;68.84;97727.16;120040;1153;104369;-70
2020/12/30 10:49:55;;;;;;;33.15;16.50;;;;;;;7.39;68.30;97716.46;120003;1153;104367;-69
2020/12/30 10:52:22;;;;;;;43.80;22.00;;;;;;;7.41;68.45;97711.89;120067;1151;104386;-71
2020/12/30 10:54:50;;;;;;;63.68;31.10;;;;;;;7.43;68.30;97698.52;120054;1152;104506;-71
2020/12/30 10:57:18;;;;;;;80.80;37.65;;;;;;;7.45;68.37;97700.09;120012;1151;104405;-71
2020/12/30 10:59:45;;;;;;;71.70;35.83;;;;;;;7.47;68.38;97691.19;120066;1151;104356;-72
2020/12/30 11:02:14;;;;;;;67.90;31.63;;;;;;;7.48;68.66;97685.76;120023;1151;104857;-73
2020/12/30 11:04:41;;;;;;;55.58;27.62;;;;;;;7.48;68.86;97677.00;120008;1153;104352;-72
2020/12/30 11:07:08;;;;;;;51.10;26.47;;;;;;;7.50;69.10;97672.42;120053;1153;104956;-73
2020/12/30 11:09:35;;;;;;;53.20;28.00;;;;;;;7.50;69.11;97670.59;120000;1153;104380;-72
2020/12/30 11:12:02;;;;;;;57.13;31.47;;;;;;;7.52;69.20;97667.84;120052;1151;104352;-71
2020/12/30 11:14:29;;;;;;;63.30;34.43;;;;;;;7.53;69.18;97672.17;120007;1151;104382;-71
2020/12/30 11:16:59;;;;;;;58.50;34.03;;;;;;;7.55;68.71;97672.85;120037;1153;104371;-73
2020/12/30 11:19:27;;;;;;;61.45;35.95;;;;;;;7.57;68.69;97658.55;120058;1152;104505;-76
2020/12/30 11:21:55;;;;;;;56.90;34.27;;;;;;;7.60;68.73;97652.14;120017;1151;104455;-71
2020/12/30 11:24:22;;;;;;;59.00;33.80;;;;;;;7.59;68.55;97645.17;120043;1151;104385;-73
2020/12/30 11:26:49;;;;;;;64.97;36.73;;;;;;;7.62;69.33;97646.74;120029;1153;104454;-72
2020/12/30 11:29:17;;;;;;;69.20;38.13;;;;;;;7.64;69.46;97642.98;120062;1153;104362;-77
2020/12/30 11:31:45;;;;;;;75.70;39.90;;;;;;;7.65;69.09;97636.73;120073;1153;104429;-72